sensor_id;sensor_type;location;lat;lon;timestamp;P1;durP1;ratioP1;P2;durP2;ratioP2
14770;SDS011;7477;45.222;5.688;2023-04-25T00:01:28;5.18;;;1.90;;
14770;SDS011;7477;45.222;5.688;2023-04-25T00:04:48;2.03;;;1.73;;
14770;SDS011;7477;45.222;5.688;2023-04-25T00:08:07;2.10;;;1.90;;
14770;SDS011;7477;45.222;5.688;2023-04-25T00:11:26;2.97;;;1.70;;
14770;SDS011;7477;45.222;5.688;2023-04-25T00:14:45;2.35;;;1.60;;
14770;SDS011;7477;45.222;5.688;2023-04-25T00:18:05;3.13;;;1.70;;
14770;SDS011;7477;45.222;5.688;2023-04-25T00:21:25;2.08;;;1.60;;
14770;SDS011;7477;45.222;5.688;2023-04-25T00:24:44;2.08;;;1.60;;
14770;SDS011;7477;45.222;5.688;2023-04-25T00:28:03;3.70;;;1.92;;
14770;SDS011;7477;45.222;5.688;2023-04-25T00:31:22;3.55;;;2.20;;
14770;SDS011;7477;45.222;5.688;2023-04-25T00:34:41;2.50;;;1.83;;
14770;SDS011;7477;45.222;5.688;2023-04-25T00:38:00;3.45;;;1.92;;
14770;SDS011;7477;45.222;5.688;2023-04-25T00:41:20;4.20;;;1.88;;
14770;SDS011;7477;45.222;5.688;2023-04-25T00:44:39;3.92;;;1.98;;
14770;SDS011;7477;45.222;5.688;2023-04-25T00:47:59;2.03;;;1.50;;
14770;SDS011;7477;45.222;5.688;2023-04-25T00:51:20;5.88;;;1.65;;
14770;SDS011;7477;45.222;5.688;2023-04-25T00:54:40;4.13;;;2.00;;
14770;SDS011;7477;45.222;5.688;2023-04-25T00:57:59;4.22;;;2.03;;
14770;SDS011;7477;45.222;5.688;2023-04-25T01:01:19;3.10;;;1.80;;
14770;SDS011;7477;45.222;5.688;2023-04-25T01:04:38;2.78;;;1.95;;
14770;SDS011;7477;45.222;5.688;2023-04-25T01:07:58;3.25;;;1.83;;
14770;SDS011;7477;45.222;5.688;2023-04-25T01:11:18;3.65;;;1.85;;
14770;SDS011;7477;45.222;5.688;2023-04-25T01:14:37;2.85;;;1.88;;
14770;SDS011;7477;45.222;5.688;2023-04-25T01:17:57;5.65;;;1.98;;
14770;SDS011;7477;45.222;5.688;2023-04-25T01:21:19;2.10;;;1.65;;
14770;SDS011;7477;45.222;5.688;2023-04-25T01:24:39;2.33;;;2.05;;
14770;SDS011;7477;45.222;5.688;2023-04-25T01:27:58;2.22;;;1.58;;
14770;SDS011;7477;45.222;5.688;2023-04-25T01:31:18;3.97;;;1.50;;
14770;SDS011;7477;45.222;5.688;2023-04-25T01:34:37;4.57;;;1.77;;
14770;SDS011;7477;45.222;5.688;2023-04-25T01:37:57;6.05;;;2.20;;
14770;SDS011;7477;45.222;5.688;2023-04-25T01:41:16;7.05;;;1.95;;
14770;SDS011;7477;45.222;5.688;2023-04-25T01:44:36;2.55;;;1.90;;
14770;SDS011;7477;45.222;5.688;2023-04-25T01:47:55;4.20;;;1.70;;
14770;SDS011;7477;45.222;5.688;2023-04-25T01:51:18;5.72;;;2.20;;
14770;SDS011;7477;45.222;5.688;2023-04-25T01:54:37;2.90;;;1.88;;
14770;SDS011;7477;45.222;5.688;2023-04-25T01:57:57;4.93;;;2.40;;
14770;SDS011;7477;45.222;5.688;2023-04-25T02:01:17;4.88;;;1.67;;
14770;SDS011;7477;45.222;5.688;2023-04-25T02:04:36;2.70;;;1.85;;
14770;SDS011;7477;45.222;5.688;2023-04-25T02:07:55;2.50;;;2.00;;
14770;SDS011;7477;45.222;5.688;2023-04-25T02:11:15;3.80;;;1.90;;
14770;SDS011;7477;45.222;5.688;2023-04-25T02:14:34;5.05;;;1.85;;
14770;SDS011;7477;45.222;5.688;2023-04-25T02:17:53;2.38;;;1.80;;
14770;SDS011;7477;45.222;5.688;2023-04-25T02:21:12;5.40;;;1.90;;
14770;SDS011;7477;45.222;5.688;2023-04-25T02:24:31;2.67;;;1.88;;
14770;SDS011;7477;45.222;5.688;2023-04-25T02:27:52;4.03;;;2.00;;
14770;SDS011;7477;45.222;5.688;2023-04-25T02:31:11;3.65;;;1.95;;
14770;SDS011;7477;45.222;5.688;2023-04-25T02:34:30;2.15;;;2.00;;
14770;SDS011;7477;45.222;5.688;2023-04-25T02:37:50;2.92;;;1.65;;
14770;SDS011;7477;45.222;5.688;2023-04-25T02:41:09;2.72;;;1.80;;
14770;SDS011;7477;45.222;5.688;2023-04-25T02:44:28;5.13;;;2.30;;
14770;SDS011;7477;45.222;5.688;2023-04-25T02:47:47;4.18;;;2.13;;
14770;SDS011;7477;45.222;5.688;2023-04-25T02:51:07;2.45;;;2.00;;
14770;SDS011;7477;45.222;5.688;2023-04-25T02:54:26;5.82;;;2.30;;
14770;SDS011;7477;45.222;5.688;2023-04-25T02:57:45;1.55;;;1.45;;
14770;SDS011;7477;45.222;5.688;2023-04-25T03:01:04;5.05;;;2.42;;
14770;SDS011;7477;45.222;5.688;2023-04-25T03:04:24;5.25;;;2.17;;
14770;SDS011;7477;45.222;5.688;2023-04-25T03:07:43;5.32;;;2.20;;
14770;SDS011;7477;45.222;5.688;2023-04-25T03:11:03;2.50;;;2.05;;
14770;SDS011;7477;45.222;5.688;2023-04-25T03:14:23;4.35;;;2.03;;
14770;SDS011;7477;45.222;5.688;2023-04-25T03:17:42;3.05;;;2.40;;
14770;SDS011;7477;45.222;5.688;2023-04-25T03:21:01;2.38;;;1.90;;
14770;SDS011;7477;45.222;5.688;2023-04-25T03:24:21;6.10;;;2.10;;
14770;SDS011;7477;45.222;5.688;2023-04-25T03:27:40;7.85;;;2.78;;
14770;SDS011;7477;45.222;5.688;2023-04-25T03:30:59;7.28;;;3.33;;
14770;SDS011;7477;45.222;5.688;2023-04-25T03:34:18;5.90;;;2.45;;
14770;SDS011;7477;45.222;5.688;2023-04-25T03:37:39;4.57;;;2.78;;
14770;SDS011;7477;45.222;5.688;2023-04-25T03:41:00;4.10;;;2.38;;
14770;SDS011;7477;45.222;5.688;2023-04-25T03:44:20;6.47;;;2.47;;
14770;SDS011;7477;45.222;5.688;2023-04-25T03:47:39;6.18;;;2.88;;
14770;SDS011;7477;45.222;5.688;2023-04-25T03:50:58;6.68;;;2.50;;
14770;SDS011;7477;45.222;5.688;2023-04-25T03:54:18;7.85;;;2.40;;
14770;SDS011;7477;45.222;5.688;2023-04-25T03:57:37;4.65;;;2.55;;
14770;SDS011;7477;45.222;5.688;2023-04-25T04:00:56;4.05;;;2.60;;
14770;SDS011;7477;45.222;5.688;2023-04-25T04:04:15;4.65;;;2.65;;
14770;SDS011;7477;45.222;5.688;2023-04-25T04:07:34;6.22;;;3.10;;
14770;SDS011;7477;45.222;5.688;2023-04-25T04:10:58;4.25;;;2.90;;
14770;SDS011;7477;45.222;5.688;2023-04-25T04:14:18;3.38;;;2.40;;
14770;SDS011;7477;45.222;5.688;2023-04-25T04:17:37;4.65;;;3.42;;
14770;SDS011;7477;45.222;5.688;2023-04-25T04:20:56;4.93;;;2.90;;
14770;SDS011;7477;45.222;5.688;2023-04-25T04:24:16;6.85;;;3.42;;
14770;SDS011;7477;45.222;5.688;2023-04-25T04:27:36;5.43;;;2.67;;
14770;SDS011;7477;45.222;5.688;2023-04-25T04:30:56;3.67;;;2.65;;
14770;SDS011;7477;45.222;5.688;2023-04-25T04:34:16;3.67;;;2.83;;
14770;SDS011;7477;45.222;5.688;2023-04-25T04:37:37;4.75;;;2.75;;
14770;SDS011;7477;45.222;5.688;2023-04-25T04:40:56;5.13;;;3.05;;
14770;SDS011;7477;45.222;5.688;2023-04-25T04:44:15;4.70;;;2.85;;
14770;SDS011;7477;45.222;5.688;2023-04-25T04:47:34;6.22;;;3.33;;
14770;SDS011;7477;45.222;5.688;2023-04-25T04:50:55;4.18;;;3.20;;
14770;SDS011;7477;45.222;5.688;2023-04-25T04:54:14;6.78;;;3.03;;
14770;SDS011;7477;45.222;5.688;2023-04-25T04:57:34;5.68;;;2.47;;
14770;SDS011;7477;45.222;5.688;2023-04-25T05:00:53;4.28;;;3.00;;
14770;SDS011;7477;45.222;5.688;2023-04-25T05:04:13;10.60;;;3.15;;
14770;SDS011;7477;45.222;5.688;2023-04-25T05:07:33;5.85;;;3.28;;
14770;SDS011;7477;45.222;5.688;2023-04-25T05:10:53;3.70;;;2.58;;
14770;SDS011;7477;45.222;5.688;2023-04-25T05:14:13;6.85;;;2.97;;
14770;SDS011;7477;45.222;5.688;2023-04-25T05:17:32;4.43;;;2.75;;
14770;SDS011;7477;45.222;5.688;2023-04-25T05:20:52;4.00;;;2.65;;
14770;SDS011;7477;45.222;5.688;2023-04-25T05:24:12;3.30;;;3.00;;
14770;SDS011;7477;45.222;5.688;2023-04-25T05:27:32;7.20;;;2.88;;
14770;SDS011;7477;45.222;5.688;2023-04-25T05:30:51;4.30;;;3.00;;
14770;SDS011;7477;45.222;5.688;2023-04-25T05:34:11;7.35;;;3.10;;
14770;SDS011;7477;45.222;5.688;2023-04-25T05:37:30;6.43;;;2.83;;
14770;SDS011;7477;45.222;5.688;2023-04-25T05:40:51;5.78;;;3.22;;
14770;SDS011;7477;45.222;5.688;2023-04-25T05:44:10;3.67;;;2.70;;
14770;SDS011;7477;45.222;5.688;2023-04-25T05:47:29;6.88;;;2.92;;
14770;SDS011;7477;45.222;5.688;2023-04-25T05:50:48;10.48;;;3.30;;
14770;SDS011;7477;45.222;5.688;2023-04-25T05:54:07;6.75;;;2.85;;
14770;SDS011;7477;45.222;5.688;2023-04-25T05:57:26;5.30;;;2.58;;
14770;SDS011;7477;45.222;5.688;2023-04-25T06:00:46;12.32;;;2.97;;
14770;SDS011;7477;45.222;5.688;2023-04-25T06:04:05;5.97;;;2.40;;
14770;SDS011;7477;45.222;5.688;2023-04-25T06:07:24;6.70;;;2.88;;
14770;SDS011;7477;45.222;5.688;2023-04-25T06:10:43;7.88;;;2.70;;
14770;SDS011;7477;45.222;5.688;2023-04-25T06:14:02;8.05;;;2.78;;
14770;SDS011;7477;45.222;5.688;2023-04-25T06:17:21;3.35;;;2.38;;
14770;SDS011;7477;45.222;5.688;2023-04-25T06:20:40;15.02;;;3.90;;
14770;SDS011;7477;45.222;5.688;2023-04-25T06:23:59;7.65;;;3.05;;
14770;SDS011;7477;45.222;5.688;2023-04-25T06:27:18;4.75;;;2.38;;
14770;SDS011;7477;45.222;5.688;2023-04-25T06:30:38;10.45;;;3.03;;
14770;SDS011;7477;45.222;5.688;2023-04-25T06:33:58;7.38;;;2.95;;
14770;SDS011;7477;45.222;5.688;2023-04-25T06:37:17;7.20;;;2.78;;
14770;SDS011;7477;45.222;5.688;2023-04-25T06:40:37;7.40;;;2.72;;
14770;SDS011;7477;45.222;5.688;2023-04-25T06:43:56;5.32;;;2.80;;
14770;SDS011;7477;45.222;5.688;2023-04-25T06:47:15;7.85;;;3.17;;
14770;SDS011;7477;45.222;5.688;2023-04-25T06:50:34;3.97;;;2.75;;
14770;SDS011;7477;45.222;5.688;2023-04-25T06:53:53;4.85;;;2.70;;
14770;SDS011;7477;45.222;5.688;2023-04-25T06:57:12;4.82;;;2.70;;
14770;SDS011;7477;45.222;5.688;2023-04-25T07:00:31;9.93;;;3.13;;
14770;SDS011;7477;45.222;5.688;2023-04-25T07:03:51;5.32;;;2.97;;
14770;SDS011;7477;45.222;5.688;2023-04-25T07:07:11;7.13;;;3.05;;
14770;SDS011;7477;45.222;5.688;2023-04-25T07:10:30;5.50;;;3.15;;
14770;SDS011;7477;45.222;5.688;2023-04-25T07:13:49;6.70;;;3.72;;
14770;SDS011;7477;45.222;5.688;2023-04-25T07:17:08;7.25;;;3.40;;
14770;SDS011;7477;45.222;5.688;2023-04-25T07:20:28;7.32;;;2.80;;
14770;SDS011;7477;45.222;5.688;2023-04-25T07:23:49;8.60;;;3.13;;
14770;SDS011;7477;45.222;5.688;2023-04-25T07:27:08;12.98;;;3.67;;
14770;SDS011;7477;45.222;5.688;2023-04-25T07:30:28;5.50;;;3.10;;
14770;SDS011;7477;45.222;5.688;2023-04-25T07:33:47;7.15;;;3.10;;
14770;SDS011;7477;45.222;5.688;2023-04-25T07:37:06;9.73;;;3.17;;
14770;SDS011;7477;45.222;5.688;2023-04-25T07:40:25;5.22;;;2.80;;
14770;SDS011;7477;45.222;5.688;2023-04-25T07:43:45;6.85;;;3.30;;
14770;SDS011;7477;45.222;5.688;2023-04-25T07:47:05;6.75;;;3.55;;
14770;SDS011;7477;45.222;5.688;2023-04-25T07:50:25;9.05;;;3.60;;
14770;SDS011;7477;45.222;5.688;2023-04-25T07:53:45;5.65;;;3.42;;
14770;SDS011;7477;45.222;5.688;2023-04-25T07:57:05;5.35;;;3.50;;
14770;SDS011;7477;45.222;5.688;2023-04-25T08:00:28;8.68;;;3.20;;
14770;SDS011;7477;45.222;5.688;2023-04-25T08:03:47;4.68;;;3.22;;
14770;SDS011;7477;45.222;5.688;2023-04-25T08:07:07;12.57;;;3.50;;
14770;SDS011;7477;45.222;5.688;2023-04-25T08:10:26;8.48;;;2.97;;
14770;SDS011;7477;45.222;5.688;2023-04-25T08:13:46;8.27;;;3.38;;
14770;SDS011;7477;45.222;5.688;2023-04-25T08:17:05;5.75;;;3.10;;
14770;SDS011;7477;45.222;5.688;2023-04-25T08:20:24;10.10;;;3.20;;
14770;SDS011;7477;45.222;5.688;2023-04-25T08:23:44;9.18;;;3.63;;
14770;SDS011;7477;45.222;5.688;2023-04-25T08:27:03;8.90;;;2.92;;
14770;SDS011;7477;45.222;5.688;2023-04-25T08:30:23;9.68;;;2.95;;
14770;SDS011;7477;45.222;5.688;2023-04-25T08:33:43;5.78;;;3.08;;
14770;SDS011;7477;45.222;5.688;2023-04-25T08:37:03;7.50;;;2.80;;
14770;SDS011;7477;45.222;5.688;2023-04-25T08:40:24;6.65;;;3.47;;
14770;SDS011;7477;45.222;5.688;2023-04-25T08:43:48;3.83;;;2.50;;
14770;SDS011;7477;45.222;5.688;2023-04-25T08:47:10;6.78;;;2.70;;
14770;SDS011;7477;45.222;5.688;2023-04-25T08:50:29;6.47;;;3.40;;
14770;SDS011;7477;45.222;5.688;2023-04-25T08:53:50;8.73;;;3.65;;
14770;SDS011;7477;45.222;5.688;2023-04-25T08:57:11;6.97;;;2.88;;
14770;SDS011;7477;45.222;5.688;2023-04-25T09:00:31;8.20;;;3.13;;
14770;SDS011;7477;45.222;5.688;2023-04-25T09:03:50;9.32;;;3.45;;
14770;SDS011;7477;45.222;5.688;2023-04-25T09:07:09;4.82;;;2.65;;
14770;SDS011;7477;45.222;5.688;2023-04-25T09:10:29;3.45;;;3.10;;
14770;SDS011;7477;45.222;5.688;2023-04-25T09:13:48;3.95;;;2.50;;
14770;SDS011;7477;45.222;5.688;2023-04-25T09:17:08;4.63;;;2.80;;
14770;SDS011;7477;45.222;5.688;2023-04-25T09:20:27;10.40;;;3.17;;
14770;SDS011;7477;45.222;5.688;2023-04-25T09:23:47;4.45;;;2.92;;
14770;SDS011;7477;45.222;5.688;2023-04-25T09:27:08;3.63;;;2.42;;
14770;SDS011;7477;45.222;5.688;2023-04-25T09:30:29;4.57;;;2.70;;
14770;SDS011;7477;45.222;5.688;2023-04-25T09:33:59;5.82;;;2.67;;
14770;SDS011;7477;45.222;5.688;2023-04-25T09:37:26;5.80;;;2.80;;
14770;SDS011;7477;45.222;5.688;2023-04-25T09:40:47;4.57;;;2.63;;
14770;SDS011;7477;45.222;5.688;2023-04-25T09:44:08;4.47;;;2.80;;
14770;SDS011;7477;45.222;5.688;2023-04-25T09:47:32;4.75;;;3.63;;
14770;SDS011;7477;45.222;5.688;2023-04-25T09:51:06;3.63;;;3.22;;
14770;SDS011;7477;45.222;5.688;2023-04-25T09:54:26;6.25;;;2.97;;
14770;SDS011;7477;45.222;5.688;2023-04-25T09:57:45;3.33;;;2.78;;
14770;SDS011;7477;45.222;5.688;2023-04-25T10:01:09;6.22;;;2.72;;
14770;SDS011;7477;45.222;5.688;2023-04-25T10:04:29;3.35;;;2.70;;
14770;SDS011;7477;45.222;5.688;2023-04-25T10:07:54;7.07;;;4.43;;
14770;SDS011;7477;45.222;5.688;2023-04-25T10:11:13;3.45;;;2.95;;
14770;SDS011;7477;45.222;5.688;2023-04-25T10:14:34;6.25;;;3.15;;
14770;SDS011;7477;45.222;5.688;2023-04-25T10:17:54;5.07;;;3.13;;
14770;SDS011;7477;45.222;5.688;2023-04-25T10:21:14;3.78;;;2.97;;
14770;SDS011;7477;45.222;5.688;2023-04-25T10:24:36;5.38;;;2.80;;
14770;SDS011;7477;45.222;5.688;2023-04-25T10:27:57;8.55;;;3.08;;
14770;SDS011;7477;45.222;5.688;2023-04-25T10:31:18;6.72;;;3.30;;
14770;SDS011;7477;45.222;5.688;2023-04-25T10:34:38;4.38;;;2.58;;
14770;SDS011;7477;45.222;5.688;2023-04-25T10:38:11;6.25;;;3.10;;
14770;SDS011;7477;45.222;5.688;2023-04-25T10:41:32;4.25;;;3.05;;
14770;SDS011;7477;45.222;5.688;2023-04-25T10:45:06;4.82;;;3.47;;
14770;SDS011;7477;45.222;5.688;2023-04-25T10:48:30;6.40;;;3.08;;
14770;SDS011;7477;45.222;5.688;2023-04-25T10:51:49;5.50;;;2.17;;
14770;SDS011;7477;45.222;5.688;2023-04-25T10:55:09;7.65;;;2.60;;
14770;SDS011;7477;45.222;5.688;2023-04-25T10:58:29;6.22;;;2.55;;
14770;SDS011;7477;45.222;5.688;2023-04-25T11:01:51;4.50;;;2.70;;
14770;SDS011;7477;45.222;5.688;2023-04-25T11:08:53;6.28;;;2.30;;
14770;SDS011;7477;45.222;5.688;2023-04-25T11:12:13;2.60;;;2.40;;
14770;SDS011;7477;45.222;5.688;2023-04-25T11:15:32;5.53;;;2.35;;
14770;SDS011;7477;45.222;5.688;2023-04-25T11:18:52;6.75;;;2.50;;
14770;SDS011;7477;45.222;5.688;2023-04-25T11:22:11;8.50;;;3.10;;
14770;SDS011;7477;45.222;5.688;2023-04-25T11:25:30;5.55;;;2.70;;
14770;SDS011;7477;45.222;5.688;2023-04-25T11:28:50;3.72;;;2.83;;
14770;SDS011;7477;45.222;5.688;2023-04-25T11:32:09;2.60;;;2.20;;
14770;SDS011;7477;45.222;5.688;2023-04-25T11:35:28;3.97;;;2.53;;
14770;SDS011;7477;45.222;5.688;2023-04-25T11:38:47;4.63;;;2.75;;
14770;SDS011;7477;45.222;5.688;2023-04-25T11:42:07;3.35;;;2.72;;
14770;SDS011;7477;45.222;5.688;2023-04-25T11:45:27;3.78;;;2.60;;
14770;SDS011;7477;45.222;5.688;2023-04-25T11:48:49;6.13;;;3.22;;
14770;SDS011;7477;45.222;5.688;2023-04-25T11:52:09;6.05;;;2.78;;
14770;SDS011;7477;45.222;5.688;2023-04-25T11:55:28;3.15;;;2.75;;
14770;SDS011;7477;45.222;5.688;2023-04-25T11:59:02;5.40;;;2.58;;
14770;SDS011;7477;45.222;5.688;2023-04-25T12:02:24;4.40;;;2.97;;
14770;SDS011;7477;45.222;5.688;2023-04-25T12:05:44;5.40;;;2.67;;
14770;SDS011;7477;45.222;5.688;2023-04-25T12:09:06;4.50;;;2.60;;
14770;SDS011;7477;45.222;5.688;2023-04-25T12:12:27;6.30;;;2.75;;
14770;SDS011;7477;45.222;5.688;2023-04-25T12:15:51;10.35;;;2.53;;
14770;SDS011;7477;45.222;5.688;2023-04-25T12:19:16;3.15;;;1.95;;
14770;SDS011;7477;45.222;5.688;2023-04-25T12:22:36;6.07;;;2.42;;
14770;SDS011;7477;45.222;5.688;2023-04-25T12:25:56;2.90;;;2.35;;
14770;SDS011;7477;45.222;5.688;2023-04-25T12:29:20;5.13;;;2.22;;
14770;SDS011;7477;45.222;5.688;2023-04-25T12:32:40;4.45;;;2.22;;
14770;SDS011;7477;45.222;5.688;2023-04-25T12:36:00;3.78;;;2.40;;
14770;SDS011;7477;45.222;5.688;2023-04-25T12:39:26;3.47;;;2.53;;
14770;SDS011;7477;45.222;5.688;2023-04-25T12:42:45;4.15;;;2.55;;
14770;SDS011;7477;45.222;5.688;2023-04-25T12:46:05;2.47;;;2.25;;
14770;SDS011;7477;45.222;5.688;2023-04-25T12:49:24;3.88;;;2.47;;
14770;SDS011;7477;45.222;5.688;2023-04-25T12:52:44;6.45;;;2.63;;
14770;SDS011;7477;45.222;5.688;2023-04-25T12:56:04;3.08;;;2.60;;
14770;SDS011;7477;45.222;5.688;2023-04-25T12:59:24;4.47;;;2.58;;
14770;SDS011;7477;45.222;5.688;2023-04-25T13:02:43;2.30;;;2.10;;
14770;SDS011;7477;45.222;5.688;2023-04-25T13:06:02;4.65;;;2.45;;
14770;SDS011;7477;45.222;5.688;2023-04-25T13:09:21;3.80;;;2.58;;
14770;SDS011;7477;45.222;5.688;2023-04-25T13:12:41;2.88;;;2.17;;
14770;SDS011;7477;45.222;5.688;2023-04-25T13:16:00;5.63;;;2.50;;
14770;SDS011;7477;45.222;5.688;2023-04-25T13:19:20;3.55;;;2.70;;
14770;SDS011;7477;45.222;5.688;2023-04-25T13:22:40;2.85;;;2.25;;
14770;SDS011;7477;45.222;5.688;2023-04-25T13:26:00;4.22;;;2.72;;
14770;SDS011;7477;45.222;5.688;2023-04-25T13:29:20;7.05;;;3.08;;
14770;SDS011;7477;45.222;5.688;2023-04-25T13:32:39;5.57;;;2.38;;
14770;SDS011;7477;45.222;5.688;2023-04-25T13:36:00;2.78;;;2.03;;
14770;SDS011;7477;45.222;5.688;2023-04-25T13:39:20;6.50;;;2.38;;
14770;SDS011;7477;45.222;5.688;2023-04-25T13:42:39;3.10;;;2.20;;
14770;SDS011;7477;45.222;5.688;2023-04-25T13:45:59;5.18;;;2.40;;
14770;SDS011;7477;45.222;5.688;2023-04-25T13:49:18;2.58;;;1.77;;
14770;SDS011;7477;45.222;5.688;2023-04-25T13:52:37;4.47;;;2.50;;
14770;SDS011;7477;45.222;5.688;2023-04-25T13:55:56;3.53;;;2.40;;
14770;SDS011;7477;45.222;5.688;2023-04-25T13:59:16;3.90;;;1.98;;
14770;SDS011;7477;45.222;5.688;2023-04-25T14:02:35;5.68;;;1.98;;
14770;SDS011;7477;45.222;5.688;2023-04-25T14:05:54;3.78;;;2.10;;
14770;SDS011;7477;45.222;5.688;2023-04-25T14:09:14;4.13;;;2.13;;
14770;SDS011;7477;45.222;5.688;2023-04-25T14:12:34;4.55;;;1.92;;
14770;SDS011;7477;45.222;5.688;2023-04-25T14:15:54;5.70;;;2.00;;
14770;SDS011;7477;45.222;5.688;2023-04-25T14:19:14;2.67;;;1.83;;
14770;SDS011;7477;45.222;5.688;2023-04-25T14:22:34;3.70;;;2.33;;
14770;SDS011;7477;45.222;5.688;2023-04-25T14:25:53;2.10;;;1.90;;
14770;SDS011;7477;45.222;5.688;2023-04-25T14:29:13;10.88;;;2.50;;
14770;SDS011;7477;45.222;5.688;2023-04-25T14:32:32;2.78;;;1.90;;
14770;SDS011;7477;45.222;5.688;2023-04-25T14:35:51;2.15;;;1.90;;
14770;SDS011;7477;45.222;5.688;2023-04-25T14:39:12;3.47;;;1.77;;
14770;SDS011;7477;45.222;5.688;2023-04-25T14:42:32;3.03;;;2.17;;
14770;SDS011;7477;45.222;5.688;2023-04-25T14:45:53;3.92;;;2.10;;
14770;SDS011;7477;45.222;5.688;2023-04-25T14:49:12;4.82;;;1.92;;
14770;SDS011;7477;45.222;5.688;2023-04-25T14:52:31;4.78;;;1.90;;
14770;SDS011;7477;45.222;5.688;2023-04-25T14:55:51;4.60;;;2.13;;
14770;SDS011;7477;45.222;5.688;2023-04-25T14:59:11;2.85;;;2.00;;
14770;SDS011;7477;45.222;5.688;2023-04-25T15:02:30;3.22;;;1.88;;
14770;SDS011;7477;45.222;5.688;2023-04-25T15:05:49;3.55;;;1.88;;
14770;SDS011;7477;45.222;5.688;2023-04-25T15:09:09;3.38;;;1.98;;
14770;SDS011;7477;45.222;5.688;2023-04-25T15:12:29;3.75;;;2.20;;
14770;SDS011;7477;45.222;5.688;2023-04-25T15:15:48;4.00;;;1.95;;
14770;SDS011;7477;45.222;5.688;2023-04-25T15:19:09;7.13;;;2.03;;
14770;SDS011;7477;45.222;5.688;2023-04-25T15:22:29;3.17;;;1.77;;
14770;SDS011;7477;45.222;5.688;2023-04-25T15:25:49;3.35;;;1.90;;
14770;SDS011;7477;45.222;5.688;2023-04-25T15:29:11;3.95;;;2.10;;
14770;SDS011;7477;45.222;5.688;2023-04-25T15:32:30;4.00;;;2.33;;
14770;SDS011;7477;45.222;5.688;2023-04-25T15:35:50;6.90;;;2.25;;
14770;SDS011;7477;45.222;5.688;2023-04-25T15:39:09;5.35;;;2.03;;
14770;SDS011;7477;45.222;5.688;2023-04-25T15:42:29;2.63;;;1.40;;
14770;SDS011;7477;45.222;5.688;2023-04-25T15:45:49;4.85;;;2.00;;
14770;SDS011;7477;45.222;5.688;2023-04-25T15:49:08;3.63;;;1.80;;
14770;SDS011;7477;45.222;5.688;2023-04-25T15:52:28;3.83;;;1.85;;
14770;SDS011;7477;45.222;5.688;2023-04-25T15:55:48;2.95;;;1.73;;
14770;SDS011;7477;45.222;5.688;2023-04-25T15:59:08;4.82;;;1.60;;
14770;SDS011;7477;45.222;5.688;2023-04-25T16:02:28;2.42;;;1.45;;
14770;SDS011;7477;45.222;5.688;2023-04-25T16:05:48;2.40;;;1.67;;
14770;SDS011;7477;45.222;5.688;2023-04-25T16:09:07;2.55;;;1.70;;
14770;SDS011;7477;45.222;5.688;2023-04-25T16:12:28;5.53;;;2.13;;
14770;SDS011;7477;45.222;5.688;2023-04-25T16:15:49;3.63;;;1.85;;
14770;SDS011;7477;45.222;5.688;2023-04-25T16:19:08;2.42;;;1.88;;
14770;SDS011;7477;45.222;5.688;2023-04-25T16:22:27;4.28;;;1.80;;
14770;SDS011;7477;45.222;5.688;2023-04-25T16:25:46;4.03;;;2.13;;
14770;SDS011;7477;45.222;5.688;2023-04-25T16:29:05;3.08;;;1.73;;
14770;SDS011;7477;45.222;5.688;2023-04-25T16:32:25;3.15;;;1.92;;
14770;SDS011;7477;45.222;5.688;2023-04-25T16:35:45;5.68;;;2.00;;
14770;SDS011;7477;45.222;5.688;2023-04-25T16:39:04;3.17;;;1.70;;
14770;SDS011;7477;45.222;5.688;2023-04-25T16:42:26;5.22;;;1.60;;
14770;SDS011;7477;45.222;5.688;2023-04-25T16:45:45;4.57;;;2.13;;
14770;SDS011;7477;45.222;5.688;2023-04-25T16:49:04;3.15;;;1.70;;
14770;SDS011;7477;45.222;5.688;2023-04-25T16:52:23;3.90;;;2.33;;
14770;SDS011;7477;45.222;5.688;2023-04-25T16:55:43;3.00;;;1.75;;
14770;SDS011;7477;45.222;5.688;2023-04-25T16:59:02;2.05;;;1.60;;
14770;SDS011;7477;45.222;5.688;2023-04-25T17:02:21;5.40;;;1.95;;
14770;SDS011;7477;45.222;5.688;2023-04-25T17:05:41;3.75;;;2.08;;
14770;SDS011;7477;45.222;5.688;2023-04-25T17:09:00;3.80;;;2.08;;
14770;SDS011;7477;45.222;5.688;2023-04-25T17:12:19;2.83;;;2.10;;
14770;SDS011;7477;45.222;5.688;2023-04-25T17:15:39;2.78;;;1.90;;
14770;SDS011;7477;45.222;5.688;2023-04-25T17:18:59;1.92;;;1.80;;
14770;SDS011;7477;45.222;5.688;2023-04-25T17:22:18;2.33;;;1.70;;
14770;SDS011;7477;45.222;5.688;2023-04-25T17:25:37;3.10;;;1.80;;
14770;SDS011;7477;45.222;5.688;2023-04-25T17:28:56;3.47;;;1.90;;
14770;SDS011;7477;45.222;5.688;2023-04-25T17:32:16;3.97;;;1.70;;
14770;SDS011;7477;45.222;5.688;2023-04-25T17:35:35;3.80;;;2.20;;
14770;SDS011;7477;45.222;5.688;2023-04-25T17:38:54;4.03;;;2.10;;
14770;SDS011;7477;45.222;5.688;2023-04-25T17:42:14;2.45;;;1.88;;
14770;SDS011;7477;45.222;5.688;2023-04-25T17:45:33;3.75;;;1.90;;
14770;SDS011;7477;45.222;5.688;2023-04-25T17:48:55;4.90;;;1.88;;
14770;SDS011;7477;45.222;5.688;2023-04-25T17:52:15;4.55;;;1.60;;
14770;SDS011;7477;45.222;5.688;2023-04-25T17:55:34;4.00;;;1.95;;
14770;SDS011;7477;45.222;5.688;2023-04-25T17:58:53;3.40;;;1.63;;
14770;SDS011;7477;45.222;5.688;2023-04-25T18:02:14;5.72;;;2.05;;
14770;SDS011;7477;45.222;5.688;2023-04-25T18:05:34;2.35;;;1.80;;
14770;SDS011;7477;45.222;5.688;2023-04-25T18:08:53;1.90;;;1.67;;
14770;SDS011;7477;45.222;5.688;2023-04-25T18:12:14;4.65;;;1.90;;
14770;SDS011;7477;45.222;5.688;2023-04-25T18:15:35;2.88;;;1.73;;
14770;SDS011;7477;45.222;5.688;2023-04-25T18:18:54;2.85;;;1.65;;
14770;SDS011;7477;45.222;5.688;2023-04-25T18:22:22;3.65;;;1.52;;
14770;SDS011;7477;45.222;5.688;2023-04-25T18:25:41;3.28;;;2.00;;
14770;SDS011;7477;45.222;5.688;2023-04-25T18:29:00;4.68;;;2.15;;
14770;SDS011;7477;45.222;5.688;2023-04-25T18:32:20;2.88;;;1.70;;
14770;SDS011;7477;45.222;5.688;2023-04-25T18:35:40;4.28;;;1.90;;
14770;SDS011;7477;45.222;5.688;2023-04-25T18:38:59;4.35;;;1.92;;
14770;SDS011;7477;45.222;5.688;2023-04-25T18:42:19;5.53;;;2.00;;
14770;SDS011;7477;45.222;5.688;2023-04-25T18:45:38;3.95;;;2.08;;
14770;SDS011;7477;45.222;5.688;2023-04-25T18:48:57;2.47;;;1.85;;
14770;SDS011;7477;45.222;5.688;2023-04-25T18:52:18;2.65;;;1.88;;
14770;SDS011;7477;45.222;5.688;2023-04-25T18:55:37;2.42;;;2.13;;
14770;SDS011;7477;45.222;5.688;2023-04-25T18:58:59;2.47;;;2.00;;
14770;SDS011;7477;45.222;5.688;2023-04-25T19:02:18;5.53;;;2.38;;
14770;SDS011;7477;45.222;5.688;2023-04-25T19:05:37;2.35;;;1.80;;
14770;SDS011;7477;45.222;5.688;2023-04-25T19:08:56;4.47;;;2.20;;
14770;SDS011;7477;45.222;5.688;2023-04-25T19:12:16;2.90;;;1.83;;
14770;SDS011;7477;45.222;5.688;2023-04-25T19:15:35;3.53;;;1.73;;
14770;SDS011;7477;45.222;5.688;2023-04-25T19:18:55;5.15;;;2.03;;
14770;SDS011;7477;45.222;5.688;2023-04-25T19:22:14;4.72;;;1.90;;
14770;SDS011;7477;45.222;5.688;2023-04-25T19:25:34;3.35;;;1.83;;
14770;SDS011;7477;45.222;5.688;2023-04-25T19:29:06;4.85;;;1.98;;
14770;SDS011;7477;45.222;5.688;2023-04-25T19:32:26;3.17;;;1.75;;
14770;SDS011;7477;45.222;5.688;2023-04-25T19:35:45;4.60;;;2.05;;
14770;SDS011;7477;45.222;5.688;2023-04-25T19:39:04;6.38;;;1.88;;
14770;SDS011;7477;45.222;5.688;2023-04-25T19:42:24;2.30;;;1.70;;
14770;SDS011;7477;45.222;5.688;2023-04-25T19:45:44;3.33;;;2.30;;
14770;SDS011;7477;45.222;5.688;2023-04-25T19:49:04;2.13;;;1.70;;
14770;SDS011;7477;45.222;5.688;2023-04-25T19:52:26;4.15;;;1.80;;
14770;SDS011;7477;45.222;5.688;2023-04-25T19:55:46;2.50;;;1.52;;
14770;SDS011;7477;45.222;5.688;2023-04-25T19:59:05;1.60;;;1.50;;
14770;SDS011;7477;45.222;5.688;2023-04-25T20:02:24;2.13;;;1.70;;
14770;SDS011;7477;45.222;5.688;2023-04-25T20:05:44;2.17;;;1.80;;
14770;SDS011;7477;45.222;5.688;2023-04-25T20:09:03;2.95;;;1.50;;
14770;SDS011;7477;45.222;5.688;2023-04-25T20:12:23;2.90;;;1.70;;
14770;SDS011;7477;45.222;5.688;2023-04-25T20:15:42;3.53;;;2.00;;
14770;SDS011;7477;45.222;5.688;2023-04-25T20:19:01;2.63;;;1.58;;
14770;SDS011;7477;45.222;5.688;2023-04-25T20:22:22;3.22;;;1.75;;
14770;SDS011;7477;45.222;5.688;2023-04-25T20:25:43;3.35;;;2.05;;